Data for 05/16/2015

Time Sea-Level Adjusted Pressure Absolute Pressure Temperature Relative Humidity Dew Point   
(mb) (inHg) (mb) (inHg) (C) (F) (%) (C) (F)
00:05 1007 29.74 836 24.69 7.6 45.6 90 5.9 42.7
00:10 1007 29.74 836 24.69 7.5 45.5 89 5.8 42.5
00:15 1007 29.74 836 24.69 7.4 45.4 89 5.8 42.4
00:20 1007 29.74 836 24.69 7.4 45.3 89 5.7 42.3
00:25 1007 29.74 836 24.69 7.4 45.2 88 5.5 41.9
00:30 1007 29.74 836 24.69 7.3 45.2 88 5.5 41.9
00:35 1007 29.74 836 24.69 7.3 45.1 88 5.4 41.8
00:40 1007 29.74 836 24.69 7.3 45.1 88 5.4 41.7
00:45 1007 29.74 836 24.69 7.2 45 88 5.3 41.5
00:50 1007 29.74 836 24.69 7.2 45 87 5.2 41.3
00:55 1007 29.74 836 24.69 7.2 44.9 87 5.1 41.2
01:00 1007 29.74 836 24.69 7.2 44.9 87 5.2 41.4
01:05 1007 29.74 836 24.69 7.1 44.8 88 5.3 41.5
01:10 1007 29.74 836 24.69 7.1 44.8 87 5.2 41.3
01:15 1007 29.74 836 24.69 7.1 44.8 88 5.2 41.4
01:20 1007 29.74 836 24.69 7.1 44.7 88 5.2 41.3
01:25 1006 29.71 836 24.69 7.1 44.7 88 5.1 41.3
01:30 1006 29.71 836 24.69 7.1 44.7 88 5.1 41.2
01:35 1006 29.71 836 24.69 7.1 44.7 87 5 41
01:40 1006 29.71 836 24.69 7.1 44.8 87 5.2 41.3
01:45 1006 29.71 836 24.69 7 44.7 86 4.8 40.7
01:50 1006 29.71 836 24.69 7 44.6 85 4.8 40.6
01:55 1006 29.71 835 24.66 7 44.6 86 4.8 40.6
02:00 1006 29.71 835 24.66 7 44.6 85 4.7 40.5
02:05 1006 29.71 835 24.66 7 44.5 85 4.7 40.4
02:10 1006 29.71 835 24.66 7 44.5 86 4.8 40.6
02:15 1006 29.71 835 24.66 6.9 44.4 86 4.7 40.4
02:20 1006 29.71 835 24.66 6.9 44.4 86 4.7 40.5
02:25 1006 29.71 835 24.66 6.9 44.3 86 4.7 40.5
02:30 1006 29.71 835 24.66 6.8 44.3 86 4.6 40.3
02:35 1006 29.71 835 24.66 6.8 44.2 86 4.7 40.4
02:40 1006 29.71 835 24.66 6.7 44.1 87 4.7 40.5
02:45 1006 29.71 835 24.66 6.7 44 88 4.9 40.8
02:50 1006 29.71 835 24.66 6.6 43.9 89 5 41
02:55 1006 29.71 835 24.66 6.5 43.8 90 5 41.1
03:00 1006 29.71 835 24.66 6.5 43.8 90 5.1 41.1
03:05 1006 29.71 836 24.69 6.5 43.6 88 4.6 40.3
03:10 1006 29.71 836 24.69 6.3 43.3 87 4.3 39.7
03:15 1006 29.71 836 24.69 6.1 43 85 3.8 38.8
03:20 1006 29.71 836 24.69 6 42.8 86 3.9 39
03:25 1006 29.71 836 24.69 5.8 42.5 87 3.8 38.8
03:30 1006 29.71 836 24.69 5.7 42.3 87 3.7 38.6
03:35 1006 29.71 836 24.69 5.6 42 86 3.3 38
03:40 1006 29.71 836 24.69 5.4 41.8 85 3.1 37.5
03:45 1006 29.71 836 24.69 5.3 41.6 84 2.8 37
03:50 1006 29.71 836 24.69 5.3 41.6 86 3.1 37.6
03:55 1006 29.71 836 24.69 5.2 41.4 86 3 37.4
04:00 1007 29.74 836 24.69 5.2 41.3 86 3 37.5
04:05 1007 29.74 836 24.69 5.2 41.3 86 3 37.5
04:10 1007 29.74 836 24.69 5.1 41.2 85 2.7 36.9
04:15 1007 29.74 836 24.69 5 41 85 2.7 36.9
04:20 1007 29.74 836 24.69 4.8 40.7 86 2.6 36.8
04:25 1007 29.74 836 24.69 4.7 40.5 87 2.7 36.9
04:30 1007 29.74 836 24.69 4.5 40.1 88 2.6 36.7
04:35 1007 29.74 836 24.69 4.4 39.9 88 2.7 36.8
04:40 1007 29.74 836 24.69 4.3 39.8 89 2.6 36.7
04:45 1007 29.74 836 24.69 4.2 39.6 89 2.6 36.6
04:50 1007 29.74 836 24.69 4.1 39.5 90 2.6 36.7
04:55 1007 29.74 836 24.69 4.1 39.4 89 2.5 36.5
05:00 1007 29.74 836 24.69 4.2 39.5 89 2.6 36.7
05:05 1007 29.74 836 24.69 4.2 39.5 87 2.2 36
05:10 1007 29.74 836 24.69 4.2 39.6 86 2.1 35.7
05:15 1007 29.74 836 24.69 4.2 39.5 86 2 35.7
05:20 1007 29.74 836 24.69 4.1 39.5 86 2 35.5
05:25 1007 29.74 836 24.69 4.3 39.7 85 1.9 35.5
05:30 1007 29.74 836 24.69 4.5 40.1 83 1.8 35.3
05:35 1007 29.74 836 24.69 4.5 40.1 84 2.1 35.8
05:40 1007 29.74 836 24.69 4.5 40 85 2.2 35.9
05:45 1007 29.74 836 24.69 4.4 39.9 85 2.2 35.9
05:50 1007 29.74 836 24.69 4.5 40 87 2.4 36.3
05:55 1007 29.74 836 24.69 4.5 40.1 86 2.4 36.4
06:00 1007 29.74 836 24.69 4.6 40.3 87 2.6 36.6
06:05 1007 29.74 836 24.69 4.7 40.4 85 2.4 36.3
06:10 1007 29.74 836 24.69 4.8 40.7 85 2.5 36.5
06:15 1007 29.74 836 24.69 4.9 40.8 86 2.7 36.9
06:20 1007 29.74 836 24.69 5 40.9 86 2.9 37.2
06:25 1007 29.74 836 24.69 5 41.1 86 2.9 37.3
06:30 1007 29.74 837 24.72 5.2 41.3 87 3.2 37.7
06:35 1007 29.74 837 24.72 5.3 41.5 87 3.3 37.9
06:40 1007 29.74 837 24.72 5.2 41.4 88 3.4 38.2
06:45 1007 29.74 837 24.72 5.3 41.5 88 3.4 38.2
06:50 1008 29.77 837 24.72 5.2 41.4 89 3.5 38.3
06:55 1008 29.77 837 24.72 5.2 41.3 89 3.5 38.3
07:00 1008 29.77 837 24.72 5.2 41.4 89 3.5 38.4
07:05 1008 29.77 837 24.72 5.2 41.4 89 3.6 38.5
07:10 1008 29.77 837 24.72 5.3 41.6 87 3.3 37.9
07:15 1008 29.77 837 24.72 5.4 41.8 88 3.5 38.3
07:20 1008 29.77 837 24.72 5.6 42 87 3.6 38.4
07:25 1008 29.77 837 24.72 5.7 42.2 88 3.8 38.9
07:30 1008 29.77 837 24.72 5.7 42.3 88 4 39.1
07:35 1008 29.77 837 24.72 5.8 42.4 89 4.1 39.4
07:40 1008 29.77 837 24.72 6 42.7 90 4.4 40
07:45 1008 29.77 837 24.72 6.3 43.3 89 4.6 40.3
07:50 1008 29.77 837 24.72 6.3 43.3 88 4.4 40
07:55 1008 29.77 837 24.72 6.2 43.1 89 4.6 40.2
08:00 1008 29.77 837 24.72 6.2 43.2 88 4.4 39.9
08:05 1008 29.77 837 24.72 6.3 43.4 89 4.7 40.5
08:10 1008 29.77 837 24.72 6.4 43.5 89 4.7 40.5
08:15 1008 29.77 837 24.72 6.3 43.4 90 4.8 40.7
08:20 1008 29.77 837 24.72 6.2 43.2 90 4.7 40.5
08:25 1008 29.77 837 24.72 6 42.8 90 4.5 40.1
08:30 1008 29.77 837 24.72 6 42.7 91 4.6 40.2
08:35 1008 29.77 837 24.72 6.2 43.1 91 4.8 40.6
08:40 1008 29.77 837 24.72 6.2 43.1 91 4.7 40.5
08:45 1008 29.77 837 24.72 6.5 43.7 89 4.9 40.8
08:50 1008 29.77 837 24.72 6.8 44.2 89 5.2 41.3
08:55 1008 29.77 837 24.72 6.8 44.3 89 5.1 41.1
09:00 1008 29.77 837 24.72 6.7 44 88 4.9 40.8
09:05 1008 29.77 837 24.72 6.2 43.2 90 4.7 40.5
09:10 1008 29.77 837 24.72 6.1 43 92 4.8 40.7
09:15 1008 29.77 837 24.72 6.3 43.4 91 5 41
09:20 1008 29.77 837 24.72 6.3 43.4 89 4.7 40.4
09:25 1008 29.77 837 24.72 6.5 43.7 89 4.8 40.6
09:30 1008 29.77 837 24.72 6.5 43.8 88 4.7 40.4
09:35 1008 29.77 837 24.72 6.5 43.7 87 4.4 40
09:40 1008 29.77 837 24.72 6.5 43.7 87 4.5 40.1
09:45 1008 29.77 837 24.72 6.7 44 88 4.8 40.6
09:50 1008 29.77 837 24.72 6.9 44.4 85 4.6 40.3
09:55 1008 29.77 837 24.72 7.1 44.8 86 4.9 40.8
10:00 1008 29.77 837 24.72 7.5 45.5 84 5 41
10:05 1008 29.77 837 24.72 7.8 46.1 80 4.5 40.2
10:10 1008 29.77 837 24.72 7.9 46.2 83 5.1 41.2
10:15 1008 29.77 837 24.72 7.8 46 82 4.9 40.7
10:20 1008 29.77 837 24.72 7.9 46.2 80 4.6 40.3
10:25 1008 29.77 837 24.72 8 46.5 77 4.3 39.7
10:30 1008 29.77 837 24.72 7.8 46.1 79 4.5 40
10:35 1008 29.77 837 24.72 8.2 46.7 79 4.8 40.6
10:40 1008 29.77 837 24.72 8.1 46.6 77 4.3 39.8
10:45 1008 29.77 837 24.72 8.2 46.8 77 4.3 39.8
10:50 1008 29.77 837 24.72 8.5 47.3 78 4.8 40.7
10:55 1008 29.77 838 24.75 8.7 47.6 74 4.4 39.9
11:00 1008 29.77 838 24.75 8.8 47.8 74 4.4 39.9
11:05 1008 29.77 838 24.75 9 48.2 76 5.1 41.2
11:10 1008 29.77 838 24.75 9.2 48.6 74 4.8 40.7
11:15 1008 29.77 838 24.75 9.1 48.4 78 5.6 42
11:20 1008 29.77 838 24.75 9.2 48.5 74 4.8 40.6
11:25 1008 29.77 838 24.75 9.2 48.6 73 4.6 40.3
11:30 1008 29.77 838 24.75 9.1 48.3 76 5 41.1
11:35 1008 29.77 838 24.75 9.1 48.3 76 5 41.1
11:40 1008 29.77 838 24.75 8.9 47.9 77 5.1 41.2
11:45 1008 29.77 838 24.75 8.6 47.4 81 5.5 42
11:50 1008 29.77 838 24.75 8.6 47.4 78 5 41.1
11:55 1008 29.77 838 24.75 8.5 47.4 81 5.4 41.7
12:00 1008 29.77 838 24.75 8.7 47.6 77 4.9 40.8
12:05 1008 29.77 838 24.75 8.7 47.6 76 4.7 40.4
12:10 1008 29.77 838 24.75 8.7 47.6 78 5 41
12:15 1008 29.77 838 24.75 8.7 47.7 79 5.2 41.4
12:20 1008 29.77 838 24.75 8.6 47.5 81 5.5 41.9
12:25 1009 29.8 838 24.75 8.5 47.3 83 5.9 42.5
12:30 1009 29.8 838 24.75 8.4 47.1 81 5.4 41.7
12:35 1009 29.8 838 24.75 8.3 46.9 83 5.5 41.8
12:40 1009 29.8 838 24.75 8.2 46.8 84 5.6 42.1
12:45 1009 29.8 838 24.75 8.4 47 80 5.1 41.1
12:50 1009 29.8 838 24.75 8.6 47.6 80 5.4 41.6
12:55 1009 29.8 838 24.75 8.8 47.9 83 6.1 42.9
13:00 1009 29.8 838 24.75 9 48.1 81 5.9 42.6
13:05 1009 29.8 838 24.75 9.3 48.7 78 5.7 42.2
13:10 1009 29.8 838 24.75 9.1 48.4 81 6.1 42.9
13:15 1009 29.8 838 24.75 8.9 48 81 5.9 42.6
13:20 1009 29.8 838 24.75 8.7 47.7 81 5.7 42.2
13:25 1009 29.8 838 24.75 8.5 47.2 84 5.9 42.6
13:30 1009 29.8 838 24.75 8.2 46.8 82 5.4 41.8
13:35 1009 29.8 838 24.75 8.1 46.6 83 5.4 41.8
13:40 1009 29.8 838 24.75 8.3 46.9 81 5.2 41.4
13:45 1009 29.8 838 24.75 8.4 47.1 79 5 41.1
13:50 1009 29.8 838 24.75 8.5 47.3 81 5.4 41.8
13:55 1009 29.8 838 24.75 8.7 47.6 80 5.4 41.8
14:00 1009 29.8 838 24.75 8.9 48.1 78 5.3 41.6
14:05 1009 29.8 838 24.75 8.9 48 78 5.3 41.6
14:10 1009 29.8 839 24.78 8.8 47.8 79 5.3 41.6
14:15 1009 29.8 839 24.78 8.5 47.4 81 5.5 41.8
14:20 1009 29.8 839 24.78 8.3 46.9 81 5.2 41.4
14:25 1009 29.8 839 24.78 8.2 46.7 82 5.2 41.4
14:30 1010 29.83 839 24.78 8.2 46.8 80 5 41.1
14:35 1010 29.83 839 24.78 8.4 47.1 77 4.6 40.3
14:40 1010 29.83 839 24.78 8.4 47 78 4.7 40.5
14:45 1010 29.83 839 24.78 8.2 46.8 81 5.1 41.2
14:50 1010 29.83 839 24.78 8.2 46.8 82 5.3 41.5
14:55 1010 29.83 839 24.78 8.1 46.6 84 5.6 42.1
15:00 1010 29.83 839 24.78 8 46.4 84 5.5 42
15:05 1010 29.83 839 24.78 7.8 46 82 5 41
15:10 1010 29.83 839 24.78 7.7 45.8 82 4.9 40.8
15:15 1010 29.83 839 24.78 7.6 45.7 84 5 41.1
15:20 1010 29.83 839 24.78 7.5 45.5 84 5 41
15:25 1010 29.83 839 24.78 7.3 45.2 86 5.2 41.3
15:30 1010 29.83 840 24.81 7.2 45 87 5.2 41.3
15:35 1010 29.83 840 24.81 7.2 44.9 88 5.3 41.5
15:40 1010 29.83 840 24.81 7.1 44.8 87 5.2 41.3
15:45 1011 29.85 840 24.81 7.1 44.7 88 5.3 41.5
15:50 1011 29.85 840 24.81 7.1 44.8 89 5.4 41.7
15:55 1011 29.85 840 24.81 7.1 44.7 89 5.4 41.7
16:00 1011 29.85 840 24.81 7 44.6 89 5.4 41.7
16:05 1011 29.85 840 24.81 7 44.5 89 5.3 41.5
16:10 1011 29.85 840 24.81 7 44.5 89 5.3 41.5
16:15 1011 29.85 840 24.81 6.9 44.5 89 5.2 41.4
16:20 1011 29.85 840 24.81 6.9 44.5 89 5.2 41.4
16:25 1011 29.85 840 24.81 7 44.5 89 5.3 41.5
16:30 1011 29.85 840 24.81 7 44.6 89 5.3 41.6
16:35 1011 29.85 840 24.81 6.9 44.5 89 5.3 41.5
16:40 1011 29.85 840 24.81 7 44.5 89 5.3 41.6
16:45 1011 29.85 841 24.83 6.9 44.5 90 5.4 41.6
16:50 1011 29.85 841 24.83 6.9 44.5 89 5.3 41.6
16:55 1012 29.88 841 24.83 6.9 44.5 90 5.4 41.7
17:00 1012 29.88 841 24.83 6.9 44.3 90 5.3 41.5
17:05 1012 29.88 841 24.83 6.8 44.3 90 5.4 41.7
17:10 1012 29.88 841 24.83 6.9 44.3 90 5.4 41.7
17:15 1012 29.88 841 24.83 6.9 44.4 89 5.3 41.5
17:20 1012 29.88 841 24.83 6.7 44 90 5.2 41.3
17:25 1012 29.88 841 24.83 6.7 44 90 5.2 41.4
17:30 1012 29.88 841 24.83 6.6 44 90 5.1 41.2
17:35 1012 29.88 841 24.83 6.6 43.8 89 4.9 40.8
17:40 1012 29.88 841 24.83 6.5 43.7 90 5 41
17:45 1012 29.88 841 24.83 6.5 43.7 90 4.9 40.9
17:50 1012 29.88 841 24.83 6.4 43.6 89 4.8 40.7
17:55 1012 29.88 841 24.83 6.3 43.4 89 4.7 40.5
18:00 1012 29.88 842 24.86 6.2 43.2 89 4.6 40.3
18:05 1012 29.88 842 24.86 6.1 43 90 4.7 40.4
18:10 1012 29.88 842 24.86 6.1 43 90 4.7 40.4
18:15 1013 29.91 842 24.86 6.1 43 90 4.6 40.2
18:20 1013 29.91 842 24.86 6.1 42.9 90 4.5 40.1
18:25 1013 29.91 842 24.86 6 42.9 90 4.5 40.2
18:30 1013 29.91 842 24.86 6 42.8 90 4.5 40.1
18:35 1013 29.91 842 24.86 5.9 42.7 91 4.5 40.1
18:40 1013 29.91 842 24.86 5.9 42.7 91 4.5 40.1
18:45 1013 29.91 842 24.86 5.8 42.5 91 4.4 40
18:50 1013 29.91 842 24.86 5.8 42.5 91 4.4 40
18:55 1013 29.91 842 24.86 5.8 42.4 91 4.4 39.9
19:00 1013 29.91 842 24.86 5.7 42.3 91 4.4 39.9
19:05 1013 29.91 842 24.86 5.7 42.2 91 4.3 39.7
19:10 1013 29.91 842 24.86 5.6 42 91 4.1 39.4
19:15 1013 29.91 842 24.86 5.4 41.7 91 4 39.2
19:20 1013 29.91 843 24.89 5.3 41.5 91 3.9 39
19:25 1013 29.91 843 24.89 5.2 41.3 91 3.8 38.9
19:30 1013 29.91 843 24.89 5.1 41.2 91 3.8 38.8
19:35 1014 29.94 843 24.89 5 41.1 92 3.8 38.8
19:40 1014 29.94 843 24.89 5 41.1 92 3.8 38.8
19:45 1014 29.94 843 24.89 5 41 92 3.7 38.7
19:50 1014 29.94 843 24.89 4.9 40.9 92 3.7 38.6
19:55 1014 29.94 843 24.89 4.9 40.7 91 3.6 38.4
20:00 1014 29.94 843 24.89 4.8 40.6 91 3.5 38.3
20:05 1014 29.94 843 24.89 4.7 40.5 92 3.5 38.2
20:10 1014 29.94 843 24.89 4.7 40.4 91 3.4 38.1
20:15 1014 29.94 843 24.89 4.6 40.4 91 3.4 38
20:20 1014 29.94 844 24.92 4.6 40.3 91 3.3 37.9
20:25 1014 29.94 844 24.92 4.6 40.2 91 3.3 37.9
20:30 1015 29.97 844 24.92 4.5 40.1 91 3.2 37.8
20:35 1015 29.97 844 24.92 4.5 40 91 3.2 37.7
20:40 1015 29.97 844 24.92 4.5 40 92 3.2 37.8
20:45 1015 29.97 844 24.92 4.5 40.1 92 3.2 37.8
20:50 1015 29.97 844 24.92 4.5 40 92 3.2 37.8
20:55 1015 29.97 844 24.92 4.4 40 92 3.2 37.8
21:00 1015 29.97 844 24.92 4.4 40 92 3.2 37.8
21:05 1015 29.97 844 24.92 4.4 40 92 3.2 37.8
21:10 1015 29.97 844 24.92 4.4 39.9 92 3.1 37.6
21:15 1015 29.97 844 24.92 4.4 39.8 91 3.1 37.5
21:20 1015 29.97 844 24.92 4.3 39.8 92 3.1 37.6
21:25 1015 29.97 844 24.92 4.3 39.7 92 3.1 37.6
21:30 1015 29.97 844 24.92 4.3 39.7 92 3.1 37.5
21:35 1015 29.97 844 24.92 4.2 39.6 92 3.1 37.5
21:40 1015 29.97 845 24.95 4.3 39.7 92 3.1 37.6
21:45 1015 29.97 845 24.95 4.3 39.7 92 3.1 37.6
21:50 1015 29.97 845 24.95 4.3 39.7 92 3.1 37.5
21:55 1015 29.97 845 24.95 4.2 39.6 92 3 37.4
22:00 1015 29.97 845 24.95 4.2 39.6 92 3 37.3
22:05 1015 29.97 845 24.95 4.2 39.6 91 2.9 37.3
22:10 1015 29.97 845 24.95 4.2 39.6 92 3 37.3
22:15 1015 29.97 845 24.95 4.2 39.5 91 2.9 37.2
22:20 1016 30 845 24.95 4.1 39.5 92 2.9 37.2
22:25 1016 30 845 24.95 4.1 39.4 92 2.9 37.2
22:30 1016 30 845 24.95 4.1 39.4 92 2.9 37.2
22:35 1016 30 845 24.95 4.1 39.4 92 2.9 37.2
22:40 1016 30 845 24.95 4 39.3 92 2.8 37.1
22:45 1016 30 845 24.95 4 39.2 92 2.8 37
22:50 1016 30 845 24.95 4 39.3 92 2.8 37
22:55 1016 30 845 24.95 4 39.2 92 2.8 37
23:00 1016 30 845 24.95 4 39.1 92 2.7 36.9
23:05 1016 30 845 24.95 3.9 39 92 2.7 36.9
23:10 1016 30 845 24.95 3.9 39 92 2.7 36.9
23:15 1016 30 845 24.95 3.9 39 92 2.8 37
23:20 1016 30 845 24.95 3.9 39 92 2.7 36.8
23:25 1016 30 845 24.95 3.8 38.9 92 2.7 36.8
23:30 1016 30 845 24.95 3.8 38.8 92 2.6 36.7
23:35 1016 30 845 24.95 3.8 38.8 92 2.7 36.8
23:40 1016 30 845 24.95 3.8 38.9 92 2.6 36.7
23:45 1016 30 845 24.95 3.8 38.8 92 2.5 36.6
23:50 1016 30 845 24.95 3.7 38.7 92 2.5 36.5
23:55 1016 30 846 24.98 3.7 38.7 92 2.6 36.6
24:00 1016 30 846 24.98 3.8 38.8 92 2.6 36.6